Time;durP1;ratioP1;P1;durP2;ratioP2;P2;SDS_P1;SDS_P2;PMS_P1;PMS_P2;Temp;Humidity;BMP_temperature;BMP_pressure;BME280_temperature;BME280_humidity;BME280_pressure;Samples;Min_cycle;Max_cycle;Signal;HPM_P1;HPM_P2
2023/04/01 00:00:57;;;;;;;6.88;2.25;;;;;;;19.14;54.12;99611.53;5012584;28;20144;-65
2023/04/01 00:03:26;;;;;;;10.43;3.03;;;;;;;19.14;53.84;99600.97;4998962;28;20065;-65
2023/04/01 00:05:52;;;;;;;10.98;3.00;;;;;;;19.14;53.90;99606.25;4986459;28;20026;-64
2023/04/01 00:08:17;;;;;;;9.55;2.70;;;;;;;19.13;53.79;99609.81;4986386;28;20052;-65
2023/04/01 00:10:43;;;;;;;7.35;2.30;;;;;;;19.10;53.76;99612.63;4978397;28;20027;-65
2023/04/01 00:13:09;;;;;;;8.63;2.67;;;;;;;19.14;54.01;99616.81;4983976;28;20485;-65
2023/04/01 00:15:35;;;;;;;9.25;2.47;;;;;;;19.12;53.95;99602.84;4973543;28;20026;-65
2023/04/01 00:18:00;;;;;;;9.25;2.88;;;;;;;19.13;53.76;99612.47;4972793;28;20613;-65
2023/04/01 00:20:27;;;;;;;8.82;2.83;;;;;;;19.12;54.07;99613.41;4981429;28;20030;-65
2023/04/01 00:22:52;;;;;;;10.52;3.22;;;;;;;19.11;54.10;99615.19;4981648;28;20026;-65
2023/04/01 00:25:18;;;;;;;7.68;2.58;;;;;;;19.09;54.04;99613.56;4982345;28;20038;-65
2023/04/01 00:27:44;;;;;;;11.07;2.67;;;;;;;19.09;53.97;99606.50;4984100;28;20023;-64
2023/04/01 00:30:10;;;;;;;10.13;2.22;;;;;;;19.11;53.86;99599.31;4986037;28;20037;-64
2023/04/01 00:32:35;;;;;;;10.25;2.90;;;;;;;19.08;53.87;99606.56;4986304;28;20030;-65
2023/04/01 00:35:01;;;;;;;10.90;3.25;;;;;;;19.05;54.12;99586.41;4974921;28;20422;-65
2023/04/01 00:37:28;;;;;;;8.27;2.80;;;;;;;19.03;54.16;99583.00;4979876;28;20815;-65
2023/04/01 00:39:54;;;;;;;8.30;3.00;;;;;;;19.05;53.88;99581.13;4990641;28;20105;-63
2023/04/01 00:42:19;;;;;;;7.93;2.70;;;;;;;19.06;53.79;99588.13;4992546;28;20022;-65
2023/04/01 00:44:56;;;;;;;9.75;2.63;;;;;;;19.06;53.78;99588.13;4993742;28;20403;-65
2023/04/01 00:47:25;;;;;;;6.93;2.35;;;;;;;19.03;54.14;99578.53;4977390;28;20117;-65
2023/04/01 00:49:53;;;;;;;7.97;2.75;;;;;;;19.04;54.18;99590.00;5001935;28;20129;-64
2023/04/01 00:52:22;;;;;;;9.77;2.28;;;;;;;19.03;53.86;99581.19;4991475;28;20518;-64
2023/04/01 00:54:52;;;;;;;7.90;1.98;;;;;;;19.04;54.06;99585.53;4991948;28;20022;-64
2023/04/01 00:57:30;;;;;;;8.40;2.72;;;;;;;19.03;53.66;99590.94;4996124;28;20025;-64
2023/04/01 00:59:57;;;;;;;7.07;2.40;;;;;;;19.02;53.95;99584.75;5012067;28;20026;-66
2023/04/01 01:02:23;;;;;;;7.78;2.55;;;;;;;18.98;54.17;99585.81;5011685;28;20443;-64
2023/04/01 01:04:48;;;;;;;7.80;2.83;;;;;;;18.99;53.88;99584.88;5011905;28;20033;-64
2023/04/01 01:07:19;;;;;;;7.68;2.40;;;;;;;18.98;53.81;99585.81;5004068;28;20035;-64
2023/04/01 01:09:54;;;;;;;9.15;2.65;;;;;;;18.97;54.11;99578.81;4994799;28;20045;-64
2023/04/01 01:12:25;;;;;;;7.57;2.45;;;;;;;18.99;53.87;99576.94;4984198;28;20037;-64
2023/04/01 01:14:59;;;;;;;7.57;2.47;;;;;;;18.97;53.96;99589.41;4986225;28;20098;-65
2023/04/01 01:17:40;;;;;;;7.88;2.38;;;;;;;18.96;54.12;99593.00;4981224;28;20035;-65
2023/04/01 01:20:32;;;;;;;9.27;2.45;;;;;;;18.96;54.06;99590.34;4980050;28;20027;-66
2023/04/01 01:23:21;;;;;;;7.00;2.40;;;;;;;18.96;53.77;99582.41;4984489;28;20042;-64
2023/04/01 01:26:32;;;;;;;8.90;2.38;;;;;;;18.95;53.84;99572.78;4989773;28;20113;-64
2023/04/01 01:29:29;;;;;;;7.13;2.00;;;;;;;18.97;54.01;99581.47;4927139;29;20032;-64
2023/04/01 01:31:54;;;;;;;9.38;3.10;;;;;;;18.94;53.86;99579.00;4907673;29;20049;-64
2023/04/01 01:34:45;;;;;;;9.02;2.50;;;;;;;18.93;53.79;99577.25;4904765;29;20542;-64
2023/04/01 01:37:24;;;;;;;9.82;2.75;;;;;;;18.94;53.95;99578.13;4904985;29;20040;-65
2023/04/01 01:39:58;;;;;;;8.55;2.45;;;;;;;18.93;54.02;99579.91;4912831;29;20048;-64
2023/04/01 01:42:26;;;;;;;8.35;2.50;;;;;;;18.91;53.93;99579.13;4902527;29;20119;-66
2023/04/01 01:44:53;;;;;;;8.65;2.88;;;;;;;18.91;54.17;99584.44;4916117;29;20080;-65
2023/04/01 01:47:22;;;;;;;8.15;2.40;;;;;;;18.90;53.95;99582.72;4908127;29;20041;-65
2023/04/01 01:49:48;;;;;;;8.77;2.70;;;;;;;18.90;53.96;99577.44;4890597;29;20051;-65
2023/04/01 01:52:14;;;;;;;7.55;2.33;;;;;;;18.88;53.69;99579.28;4887129;29;20041;-65
2023/04/01 01:54:58;;;;;;;8.07;2.47;;;;;;;18.90;53.94;99577.44;4891920;29;20056;-65
2023/04/01 01:57:28;;;;;;;7.20;2.38;;;;;;;18.87;54.05;99582.88;4892942;29;20044;-65
2023/04/01 02:00:01;;;;;;;6.20;1.92;;;;;;;18.89;53.68;99575.72;4908417;29;20119;-65
2023/04/01 02:02:31;;;;;;;9.00;2.55;;;;;;;18.87;53.98;99577.56;4916246;29;20551;-65
2023/04/01 02:04:57;;;;;;;8.02;2.50;;;;;;;18.88;54.03;99579.28;4923836;29;20036;-65
2023/04/01 02:07:31;;;;;;;6.82;2.40;;;;;;;18.89;53.95;99583.66;4928479;29;20047;-65
2023/04/01 02:09:56;;;;;;;7.35;2.20;;;;;;;18.89;53.89;99565.16;4970429;28;20047;-65
2023/04/01 02:12:24;;;;;;;8.43;2.65;;;;;;;18.88;53.78;99558.13;4969736;28;20116;-65
2023/04/01 02:14:59;;;;;;;8.32;2.50;;;;;;;18.87;53.74;99557.28;4956603;29;20119;-66
2023/04/01 02:17:28;;;;;;;7.72;2.45;;;;;;;18.86;53.89;99554.72;4970596;28;20031;-65
2023/04/01 02:19:59;;;;;;;8.63;2.38;;;;;;;18.87;53.89;99551.13;4967155;28;20031;-65
2023/04/01 02:22:29;;;;;;;10.27;2.80;;;;;;;18.85;54.03;99553.00;4968763;28;20030;-65
2023/04/01 02:24:59;;;;;;;7.55;2.53;;;;;;;18.85;53.63;99550.38;4969209;28;20031;-65
2023/04/01 02:27:25;;;;;;;8.68;2.28;;;;;;;18.84;53.96;99548.66;4974636;28;20046;-65
2023/04/01 02:29:52;;;;;;;7.50;2.13;;;;;;;18.85;53.99;99542.44;4967573;28;20071;-65
2023/04/01 02:32:20;;;;;;;8.38;2.55;;;;;;;18.82;53.71;99543.44;4972093;28;20033;-66
2023/04/01 02:34:46;;;;;;;7.82;2.38;;;;;;;18.83;54.00;99558.38;4965952;28;20030;-66
2023/04/01 02:37:13;;;;;;;8.45;2.47;;;;;;;18.81;53.99;99559.38;4972845;28;20162;-65
2023/04/01 02:39:39;;;;;;;8.13;2.85;;;;;;;18.84;54.01;99546.84;4965398;28;20031;-65
2023/04/01 02:42:05;;;;;;;7.45;2.67;;;;;;;18.82;53.86;99545.22;4955232;29;20019;-65
2023/04/01 02:44:31;;;;;;;7.88;2.80;;;;;;;18.82;53.73;99545.22;4955863;29;20114;-65
2023/04/01 02:46:56;;;;;;;8.55;2.72;;;;;;;18.82;53.89;99539.94;4955747;29;20031;-65
2023/04/01 02:49:22;;;;;;;8.77;2.50;;;;;;;18.81;53.82;99557.59;4941254;29;20051;-66
2023/04/01 02:51:47;;;;;;;8.38;2.83;;;;;;;18.82;53.78;99542.56;4955435;29;20058;-66
2023/04/01 02:54:13;;;;;;;9.30;2.78;;;;;;;18.81;54.00;99548.81;4967047;28;20106;-65
2023/04/01 02:56:38;;;;;;;8.68;2.83;;;;;;;18.79;54.08;99541.81;4966168;28;20481;-64
2023/04/01 02:59:04;;;;;;;7.40;2.50;;;;;;;18.78;53.90;99540.09;4974655;28;20031;-65
2023/04/01 03:01:29;;;;;;;7.40;2.33;;;;;;;18.77;53.90;99548.97;4969900;28;20035;-65
2023/04/01 03:03:55;;;;;;;7.70;2.88;;;;;;;18.75;53.86;99548.19;4968337;28;20035;-65
2023/04/01 03:06:21;;;;;;;7.50;2.47;;;;;;;18.76;53.77;99547.25;4973194;28;20027;-66
2023/04/01 03:08:46;;;;;;;8.93;2.92;;;;;;;18.76;53.64;99547.25;4968288;28;20038;-65
2023/04/01 03:11:12;;;;;;;9.23;2.60;;;;;;;18.74;54.04;99543.81;4963171;28;20414;-65
2023/04/01 03:13:38;;;;;;;6.72;2.47;;;;;;;18.74;53.93;99543.81;4963567;28;20028;-65
2023/04/01 03:16:04;;;;;;;8.27;2.28;;;;;;;18.74;53.84;99546.47;4955415;29;20494;-65
2023/04/01 03:18:29;;;;;;;9.27;2.60;;;;;;;18.75;54.08;99542.88;4960090;28;20052;-65
2023/04/01 03:20:55;;;;;;;8.77;2.40;;;;;;;18.71;53.95;99536.06;4964157;28;20039;-65
2023/04/01 03:23:20;;;;;;;9.00;2.35;;;;;;;18.74;53.93;99532.41;4974067;28;20027;-65
2023/04/01 03:25:46;;;;;;;8.02;2.20;;;;;;;18.71;53.96;99528.13;4964638;28;20041;-66
2023/04/01 03:28:13;;;;;;;7.35;2.08;;;;;;;18.72;53.76;99526.34;4956078;28;20114;-64
2023/04/01 03:30:38;;;;;;;8.07;2.70;;;;;;;18.72;53.91;99529.84;4957186;28;20029;-66
2023/04/01 03:33:04;;;;;;;9.18;2.55;;;;;;;18.72;54.05;99529.84;4965833;28;20030;-63
2023/04/01 03:35:29;;;;;;;10.68;3.00;;;;;;;18.69;53.73;99529.97;4954519;29;20019;-64
2023/04/01 03:37:56;;;;;;;9.45;2.47;;;;;;;18.70;53.96;99541.41;4955002;29;20026;-65
2023/04/01 03:40:22;;;;;;;10.48;2.45;;;;;;;18.70;54.19;99539.63;4965859;28;20038;-65
2023/04/01 03:42:48;;;;;;;8.10;2.50;;;;;;;18.68;53.90;99541.50;4960237;28;20575;-65
2023/04/01 03:45:13;;;;;;;9.13;2.47;;;;;;;18.66;54.14;99538.09;4970660;28;20023;-65
2023/04/01 03:47:39;;;;;;;9.30;2.88;;;;;;;18.67;54.17;99534.50;4972125;28;20089;-65
2023/04/01 03:50:06;;;;;;;7.13;2.45;;;;;;;18.66;54.21;99532.78;4985294;28;20074;-66
2023/04/01 03:52:31;;;;;;;9.10;2.53;;;;;;;18.67;54.07;99537.16;4992348;28;20027;-65
2023/04/01 03:54:57;;;;;;;8.50;2.60;;;;;;;18.66;54.25;99532.78;4991766;28;20101;-65
2023/04/01 03:57:22;;;;;;;9.38;2.92;;;;;;;18.66;54.08;99516.94;4993992;28;20496;-65
2023/04/01 03:59:48;;;;;;;8.93;2.65;;;;;;;18.65;54.19;99515.22;4998199;28;20104;-66
2023/04/01 04:02:13;;;;;;;8.82;2.95;;;;;;;18.66;54.00;99516.94;5012735;28;20034;-65
2023/04/01 04:04:39;;;;;;;10.38;2.10;;;;;;;18.65;54.06;99516.06;5012595;28;20049;-66
2023/04/01 04:07:05;;;;;;;10.32;2.63;;;;;;;18.63;54.17;99517.06;5012678;28;20026;-65
2023/04/01 04:09:31;;;;;;;8.32;2.58;;;;;;;18.63;53.87;99519.72;5012542;28;20026;-65
2023/04/01 04:11:57;;;;;;;11.02;3.15;;;;;;;18.65;54.05;99525.81;5012461;28;20053;-65
2023/04/01 04:14:23;;;;;;;11.20;2.65;;;;;;;18.66;54.11;99522.22;5012432;28;20041;-66
2023/04/01 04:16:48;;;;;;;7.88;2.67;;;;;;;18.65;53.90;99520.53;4999481;28;20018;-66
2023/04/01 04:19:14;;;;;;;12.05;2.60;;;;;;;18.62;53.99;99510.94;4992500;28;20031;-64
2023/04/01 04:21:41;;;;;;;9.05;2.83;;;;;;;18.63;54.00;99511.78;4992701;28;20022;-65
2023/04/01 04:24:07;;;;;;;8.38;2.30;;;;;;;18.62;54.13;99505.66;4992880;28;20105;-64
2023/04/01 04:26:32;;;;;;;11.20;2.47;;;;;;;18.60;54.15;99504.88;5004843;28;20507;-65
2023/04/01 04:28:58;;;;;;;8.25;2.65;;;;;;;18.61;53.83;99516.31;4983997;28;20674;-65
2023/04/01 04:31:25;;;;;;;7.40;2.25;;;;;;;18.58;54.23;99519.97;4977657;28;20031;-64
2023/04/01 04:33:51;;;;;;;7.80;2.55;;;;;;;18.59;54.09;99520.81;4981305;28;20102;-66
2023/04/01 04:36:17;;;;;;;9.75;2.70;;;;;;;18.60;54.13;99511.97;4982226;28;20022;-65
2023/04/01 04:38:43;;;;;;;9.13;2.60;;;;;;;18.58;54.26;99508.53;4992857;28;20093;-65
2023/04/01 04:41:11;;;;;;;9.77;2.50;;;;;;;18.58;53.93;99519.97;4992539;28;20030;-65
2023/04/01 04:43:37;;;;;;;8.13;2.35;;;;;;;18.60;53.98;99523.38;4992624;28;20031;-65
2023/04/01 04:46:09;;;;;;;7.65;2.58;;;;;;;18.60;54.39;99527.81;4999401;28;20071;-65
2023/04/01 04:48:35;;;;;;;7.03;2.50;;;;;;;18.59;54.32;99531.41;5011595;28;20049;-66
2023/04/01 04:51:01;;;;;;;9.25;2.53;;;;;;;18.60;53.91;99533.09;4981005;28;20491;-66
2023/04/01 04:53:27;;;;;;;8.85;2.50;;;;;;;18.59;54.32;99523.47;4986086;28;20069;-66
2023/04/01 04:55:53;;;;;;;7.63;2.83;;;;;;;18.59;53.99;99523.47;4990371;28;20037;-65
2023/04/01 04:58:19;;;;;;;11.15;3.03;;;;;;;18.56;54.06;99520.97;4985721;28;20041;-65
2023/04/01 05:00:45;;;;;;;8.77;2.38;;;;;;;18.57;54.32;99523.53;4972767;28;20027;-65
2023/04/01 05:03:11;;;;;;;9.05;2.60;;;;;;;18.59;54.24;99512.91;4984932;28;20023;-64
2023/04/01 05:05:37;;;;;;;9.93;2.83;;;;;;;18.58;54.11;99527.00;4990226;28;20102;-65
2023/04/01 05:08:03;;;;;;;6.15;1.98;;;;;;;18.57;54.04;99522.66;4979761;28;20117;-65
2023/04/01 05:10:29;;;;;;;8.35;2.70;;;;;;;18.57;54.24;99522.66;4976823;28;20118;-65
2023/04/01 05:12:54;;;;;;;7.82;2.60;;;;;;;18.56;54.11;99518.31;4984105;28;20035;-64
2023/04/01 05:15:20;;;;;;;8.80;2.33;;;;;;;18.55;54.17;99513.97;4984422;28;20031;-65
2023/04/01 05:17:45;;;;;;;7.05;2.30;;;;;;;18.56;54.05;99513.91;4987465;28;20035;-65
2023/04/01 05:20:12;;;;;;;9.05;2.72;;;;;;;18.57;54.19;99517.38;4989766;28;20492;-65
2023/04/01 05:22:38;;;;;;;8.15;2.05;;;;;;;18.55;54.30;99508.69;4975081;28;20089;-65
2023/04/01 05:25:04;;;;;;;8.98;2.95;;;;;;;18.57;54.24;99514.75;4986694;28;20038;-65
2023/04/01 05:27:29;;;;;;;8.98;2.75;;;;;;;18.55;54.20;99527.19;4985781;28;20041;-64
2023/04/01 05:29:55;;;;;;;8.27;2.63;;;;;;;18.54;54.00;99517.56;4985432;28;20029;-65
2023/04/01 05:32:21;;;;;;;7.93;2.35;;;;;;;18.55;54.10;99519.25;4991898;28;20038;-66
2023/04/01 05:34:46;;;;;;;7.78;2.92;;;;;;;18.54;54.30;99521.03;4977655;28;20065;-67
2023/04/01 05:37:11;;;;;;;8.60;2.17;;;;;;;18.54;54.20;99522.84;4995958;28;20038;-66
2023/04/01 05:39:38;;;;;;;8.00;2.53;;;;;;;18.52;53.99;99521.13;4995837;28;20029;-65
2023/04/01 05:42:06;;;;;;;9.68;2.72;;;;;;;18.51;54.08;99524.69;4995458;28;20034;-65
2023/04/01 05:44:31;;;;;;;8.32;2.63;;;;;;;18.50;54.14;99522.97;4994307;28;20022;-65
2023/04/01 05:46:57;;;;;;;6.45;2.20;;;;;;;18.52;54.07;99530.84;4995197;28;20089;-65
2023/04/01 05:49:22;;;;;;;9.57;3.03;;;;;;;18.51;54.20;99535.25;5001836;28;20415;-65
2023/04/01 05:51:47;;;;;;;9.52;2.83;;;;;;;18.51;54.22;99518.56;5014896;28;20029;-65
2023/04/01 05:54:13;;;;;;;8.93;2.58;;;;;;;18.50;53.89;99533.53;5002492;28;20056;-65
2023/04/01 05:56:38;;;;;;;8.88;2.63;;;;;;;18.50;53.92;99538.84;4995445;28;20455;-65
2023/04/01 05:59:04;;;;;;;8.30;2.38;;;;;;;18.51;54.08;99537.06;4995268;28;20519;-65
2023/04/01 06:01:29;;;;;;;10.23;3.70;;;;;;;18.51;53.92;99545.81;5011371;28;20033;-65
2023/04/01 06:03:54;;;;;;;9.00;1.90;;;;;;;18.49;54.25;99545.06;5014854;28;20026;-65
2023/04/01 06:06:25;;;;;;;9.02;3.00;;;;;;;18.49;54.36;99542.41;5014965;28;20476;-65
2023/04/01 06:08:52;;;;;;;7.00;2.80;;;;;;;18.48;54.17;99543.34;5014442;28;20022;-65
2023/04/01 06:11:26;;;;;;;7.47;2.35;;;;;;;18.49;54.31;99547.69;5014512;28;20026;-65
2023/04/01 06:14:07;;;;;;;8.10;2.63;;;;;;;18.48;54.34;99548.63;5014543;28;20030;-65
2023/04/01 06:17:02;;;;;;;7.40;2.15;;;;;;;18.49;54.22;99552.97;5012844;28;20403;-65
2023/04/01 06:19:48;;;;;;;10.23;3.03;;;;;;;18.48;54.12;99548.63;4990389;28;20038;-65
2023/04/01 06:22:14;;;;;;;;;;;;;;;18.46;54.04;99552.28;4978301;28;20173;-65
2023/04/01 06:24:48;;;;;;;10.07;2.50;;;;;;;18.46;54.10;99558.41;4984089;28;20004;-65
2023/04/01 06:27:19;;;;;;;9.52;2.58;;;;;;;18.46;54.13;99553.13;4975452;28;20035;-65
2023/04/01 06:30:07;;;;;;;8.45;2.80;;;;;;;18.44;54.12;99560.28;4975056;28;20023;-65
2023/04/01 06:32:57;;;;;;;6.55;2.17;;;;;;;18.46;54.24;99574.25;4986531;28;20039;-67
2023/04/01 06:35:31;;;;;;;8.45;2.88;;;;;;;18.45;54.15;99564.63;4986856;28;20582;-66
2023/04/01 06:38:30;;;;;;;8.13;2.72;;;;;;;18.44;54.23;99560.28;4969020;28;20558;-65
2023/04/01 06:41:13;;;;;;;9.68;2.80;;;;;;;18.45;54.30;99556.69;4991013;28;20034;-66
2023/04/01 06:44:15;;;;;;;8.18;2.63;;;;;;;18.46;54.10;99563.69;4993620;28;20030;-65
2023/04/01 06:47:15;;;;;;;9.68;2.03;;;;;;;18.45;54.33;99561.97;4934287;29;20051;-65
2023/04/01 06:49:55;;;;;;;7.90;2.40;;;;;;;18.45;54.04;99563.78;4933435;29;20055;-65
2023/04/01 06:52:48;;;;;;;9.15;2.83;;;;;;;18.45;54.09;99559.34;4932674;29;20043;-65
2023/04/01 06:55:40;;;;;;;8.93;2.53;;;;;;;18.45;54.26;99559.34;4933688;29;20533;-65
2023/04/01 06:58:17;;;;;;;10.70;2.40;;;;;;;18.44;54.53;99560.28;4933849;29;20040;-65
2023/04/01 07:00:45;;;;;;;6.93;2.17;;;;;;;18.46;54.20;99563.69;4933695;29;20047;-66
2023/04/01 07:03:22;;;;;;;8.40;2.40;;;;;;;18.42;54.05;99556.00;4918078;29;20032;-65
2023/04/01 07:05:48;;;;;;;8.70;2.03;;;;;;;18.44;53.99;99555.00;4933330;29;20118;-66
2023/04/01 07:08:29;;;;;;;8.95;2.85;;;;;;;18.45;54.25;99561.97;4933439;29;20071;-65
2023/04/01 07:11:04;;;;;;;6.35;2.03;;;;;;;18.44;54.34;99560.28;4933579;29;20044;-66
2023/04/01 07:13:55;;;;;;;7.22;2.08;;;;;;;18.43;54.15;99561.22;4933492;29;20040;-64
2023/04/01 07:16:45;;;;;;;7.82;2.20;;;;;;;18.42;54.24;99564.78;4933792;29;20035;-65
2023/04/01 07:19:34;;;;;;;7.53;2.50;;;;;;;18.43;54.28;99558.56;4934085;29;20044;-64
2023/04/01 07:22:13;;;;;;;10.95;2.50;;;;;;;18.44;53.95;99549.69;4974476;28;20050;-65
2023/04/01 07:24:43;;;;;;;8.65;2.88;;;;;;;18.43;54.03;99561.22;4974321;28;20488;-65
2023/04/01 07:27:10;;;;;;;8.27;2.45;;;;;;;18.43;54.31;99558.56;4973920;28;20046;-66
2023/04/01 07:29:36;;;;;;;7.72;2.30;;;;;;;18.42;54.04;99556.84;4974351;28;20054;-66
2023/04/01 07:32:20;;;;;;;5.72;2.05;;;;;;;18.43;54.03;99553.28;4974504;28;20069;-65
2023/04/01 07:34:54;;;;;;;9.20;2.33;;;;;;;18.42;53.96;99551.56;4974071;28;20019;-65
2023/04/01 07:37:37;;;;;;;10.57;2.70;;;;;;;18.42;53.95;99551.56;4974183;28;20576;-64
2023/04/01 07:40:25;;;;;;;11.23;3.55;;;;;;;18.43;54.09;99548.00;4974158;28;20030;-65
2023/04/01 07:43:15;;;;;;;8.75;2.10;;;;;;;18.43;54.10;99548.00;4973776;28;20070;-64
2023/04/01 07:46:03;;;;;;;9.52;2.30;;;;;;;18.45;54.13;99529.44;4957075;28;20505;-65
2023/04/01 07:49:17;;;;;;;7.35;2.45;;;;;;;18.44;54.14;99547.06;4964265;28;20051;-65
2023/04/01 07:51:59;;;;;;;8.55;2.20;;;;;;;18.44;54.17;99548.88;4912003;29;20048;-64
2023/04/01 07:55:03;;;;;;;7.45;2.50;;;;;;;18.46;54.15;99536.44;4938489;29;20031;-64
2023/04/01 07:57:57;;;;;;;10.07;2.08;;;;;;;18.45;54.36;99548.75;4927082;29;20039;-65
2023/04/01 08:00:34;;;;;;;6.05;1.85;;;;;;;18.45;54.25;99527.63;4932432;29;20043;-65
2023/04/01 08:03:34;;;;;;;7.75;2.20;;;;;;;18.46;54.20;99542.53;4932756;29;20035;-65
2023/04/01 08:06:08;;;;;;;8.55;2.05;;;;;;;18.48;54.20;99523.97;4941995;29;20544;-65
2023/04/01 08:09:07;;;;;;;7.22;2.50;;;;;;;18.47;54.24;99527.56;4931623;29;20169;-64
2023/04/01 08:11:53;;;;;;;8.82;2.42;;;;;;;18.46;54.17;99529.34;4931740;29;20107;-64
2023/04/01 08:14:44;;;;;;;9.03;3.17;;;;;;;18.49;54.29;99521.28;4934728;29;20118;-64
2023/04/01 08:17:28;;;;;;;9.88;2.47;;;;;;;18.49;54.05;99515.13;4950942;29;20118;-65
2023/04/01 08:20:14;;;;;;;7.85;2.05;;;;;;;18.48;54.24;99510.78;4935405;29;20034;-65
2023/04/01 08:22:43;;;;;;;8.30;2.25;;;;;;;18.49;54.03;99513.34;4951778;29;20063;-65
2023/04/01 08:25:17;;;;;;;6.90;2.42;;;;;;;18.51;54.20;99502.72;4950574;29;20039;-64
2023/04/01 08:28:08;;;;;;;11.00;2.40;;;;;;;18.53;53.89;99495.53;4956558;28;20101;-66
2023/04/01 08:30:56;;;;;;;9.07;2.10;;;;;;;18.54;53.92;99496.41;4973049;28;20038;-65
2023/04/01 08:33:26;;;;;;;7.22;2.00;;;;;;;18.56;53.84;99499.81;4972806;28;20647;-65
2023/04/01 08:36:01;;;;;;;9.05;2.35;;;;;;;18.57;53.59;99498.88;4972641;28;20027;-64
2023/04/01 08:38:40;;;;;;;8.65;2.60;;;;;;;18.57;53.65;99496.25;4972359;28;20034;-64
2023/04/01 08:41:33;;;;;;;10.45;2.42;;;;;;;18.58;53.70;99492.66;4972608;28;20030;-63
2023/04/01 08:44:21;;;;;;;6.30;1.83;;;;;;;18.60;53.46;99502.22;4971905;28;20035;-65
2023/04/01 08:47:05;;;;;;;6.28;2.10;;;;;;;18.62;53.38;99499.50;4972107;28;20023;-65
2023/04/01 08:50:08;;;;;;;6.22;1.92;;;;;;;18.63;53.40;99503.88;4978361;28;20168;-63
2023/04/01 08:52:36;;;;;;;7.28;2.20;;;;;;;18.64;53.30;99490.56;4992415;28;20038;-65
2023/04/01 08:55:30;;;;;;;8.55;2.55;;;;;;;18.62;53.46;99494.22;4991878;28;20113;-66
2023/04/01 08:58:46;;;;;;;7.40;2.00;;;;;;;18.65;53.37;99491.44;4999642;28;20040;-65
2023/04/01 09:01:23;;;;;;;8.13;2.10;;;;;;;18.64;53.36;99487.94;4931365;29;20092;-64
2023/04/01 09:03:52;;;;;;;7.80;2.20;;;;;;;18.62;53.14;99478.38;4932096;29;20095;-65
2023/04/01 09:06:24;;;;;;;9.68;2.42;;;;;;;18.63;53.20;99480.06;4928627;29;20032;-64
2023/04/01 09:09:26;;;;;;;8.13;2.20;;;;;;;18.64;53.43;99477.38;4912397;29;20438;-65
2023/04/01 09:12:13;;;;;;;7.55;1.90;;;;;;;18.66;53.08;99474.66;4912610;29;20070;-64
2023/04/01 09:14:57;;;;;;;7.50;1.90;;;;;;;18.65;53.30;99463.22;4912649;29;20169;-64
2023/04/01 09:17:58;;;;;;;6.00;1.75;;;;;;;18.67;53.20;99479.00;4925075;29;20052;-64
2023/04/01 09:20:46;;;;;;;7.05;2.25;;;;;;;18.67;53.33;99467.56;4858187;29;20044;-65
2023/04/01 09:23:38;;;;;;;8.20;2.40;;;;;;;18.69;53.13;99473.63;4860092;29;20090;-65
2023/04/01 09:26:22;;;;;;;6.85;2.03;;;;;;;18.71;52.82;99467.34;4861044;29;20056;-64
2023/04/01 09:29:11;;;;;;;8.55;1.70;;;;;;;18.72;53.10;99468.19;4853567;29;20086;-64
2023/04/01 09:31:47;;;;;;;7.78;1.92;;;;;;;18.75;52.88;99458.28;4852306;29;20452;-64
2023/04/01 09:34:31;;;;;;;7.05;2.13;;;;;;;18.74;53.07;99461.88;4862458;29;20033;-64
2023/04/01 09:37:34;;;;;;;8.18;2.03;;;;;;;18.78;52.77;99459.94;4894811;29;20067;-65
2023/04/01 09:40:18;;;;;;;6.53;1.92;;;;;;;18.78;52.80;99458.16;4910791;29;20032;-65
2023/04/01 09:43:01;;;;;;;8.68;1.75;;;;;;;18.78;52.70;99450.22;4906787;29;20032;-65
2023/04/01 09:45:51;;;;;;;8.40;2.10;;;;;;;18.79;52.74;99451.94;4910127;29;20055;-64
2023/04/01 09:48:54;;;;;;;7.65;1.95;;;;;;;18.83;52.57;99443.84;4903326;29;20142;-65
2023/04/01 09:51:34;;;;;;;6.47;1.98;;;;;;;18.84;52.43;99429.69;4910006;29;20040;-66
2023/04/01 09:54:12;;;;;;;6.00;2.00;;;;;;;18.84;52.65;99440.28;4912213;29;20028;-63
2023/04/01 09:56:52;;;;;;;7.18;1.98;;;;;;;18.86;52.21;99427.81;4969587;28;20042;-63
2023/04/01 10:00:01;;;;;;;7.30;1.90;;;;;;;18.86;52.40;99425.16;4995133;28;20150;-64
2023/04/01 10:02:38;;;;;;;7.07;1.85;;;;;;;18.89;52.38;99411.81;4976806;28;20034;-63
2023/04/01 10:05:27;;;;;;;5.13;1.50;;;;;;;18.89;52.12;99430.31;4994600;28;20519;-63
2023/04/01 10:08:05;;;;;;;7.35;1.88;;;;;;;18.91;52.31;99420.50;4988835;28;20073;-63
2023/04/01 10:10:48;;;;;;;6.32;1.92;;;;;;;18.93;52.10;99408.03;4975082;28;20042;-64
2023/04/01 10:13:30;;;;;;;5.13;1.90;;;;;;;18.91;52.34;99404.63;4976914;28;20080;-64
2023/04/01 10:16:10;;;;;;;6.50;1.90;;;;;;;18.93;52.23;99418.63;5002679;28;20034;-65
2023/04/01 10:19:03;;;;;;;4.68;1.40;;;;;;;18.93;51.95;99413.31;5001473;28;20038;-65
2023/04/01 10:21:57;;;;;;;7.07;1.92;;;;;;;18.94;52.14;99415.06;4986148;28;20029;-64
2023/04/01 10:25:02;;;;;;;5.55;1.65;;;;;;;18.96;52.25;99418.47;4923306;29;20410;-66
2023/04/01 10:27:39;;;;;;;7.63;1.80;;;;;;;18.97;51.92;99404.31;4924355;29;20039;-65
2023/04/01 10:30:19;;;;;;;5.65;1.40;;;;;;;18.97;51.90;99395.50;4923048;29;20498;-64
2023/04/01 10:33:03;;;;;;;5.00;1.88;;;;;;;18.98;51.92;99406.00;4918517;29;20131;-65
2023/04/01 10:36:13;;;;;;;7.30;2.00;;;;;;;18.99;52.19;99407.72;4918144;29;20044;-63
2023/04/01 10:39:19;;;;;;;6.15;1.95;;;;;;;19.00;52.12;99398.88;4919430;29;20047;-65
2023/04/01 10:42:02;;;;;;;5.68;1.65;;;;;;;19.00;52.25;99404.16;4922742;29;20036;-65
2023/04/01 10:44:34;;;;;;;6.53;1.60;;;;;;;19.03;52.47;99393.44;4920420;29;20510;-66
2023/04/01 10:47:37;;;;;;;6.40;1.67;;;;;;;19.04;52.64;99389.84;4917714;29;20028;-64
2023/04/01 10:50:11;;;;;;;5.70;1.63;;;;;;;19.05;52.46;99393.34;4913418;29;20313;-65
2023/04/01 10:53:06;;;;;;;5.50;1.55;;;;;;;19.08;52.52;99389.69;4909920;29;20042;-64
2023/04/01 10:55:50;;;;;;;5.40;1.88;;;;;;;19.08;52.59;99389.69;4902618;29;20131;-65
2023/04/01 10:58:39;;;;;;;6.72;1.55;;;;;;;19.08;52.78;99389.69;4911150;29;20127;-65
2023/04/01 11:01:34;;;;;;;6.68;2.10;;;;;;;19.10;52.45;99382.50;4933664;28;20050;-65
2023/04/01 11:04:32;;;;;;;5.45;1.60;;;;;;;19.09;52.73;99375.53;4967909;28;20058;-66
2023/04/01 11:07:22;;;;;;;7.05;1.92;;;;;;;19.11;52.66;99381.56;4966317;28;20033;-65
2023/04/01 11:10:21;;;;;;;6.75;1.90;;;;;;;19.12;52.57;99380.66;4964705;28;20030;-64
2023/04/01 11:12:53;;;;;;;7.43;1.85;;;;;;;19.12;52.74;99412.41;4968892;28;20062;-65
2023/04/01 11:15:57;;;;;;;7.20;1.75;;;;;;;19.11;52.50;99415.97;4982737;28;20023;-64
2023/04/01 11:19:00;;;;;;;7.30;1.85;;;;;;;19.13;52.56;99429.97;4975200;28;20093;-66
2023/04/01 11:21:55;;;;;;;5.70;1.75;;;;;;;19.13;52.46;99424.69;4975966;28;20504;-65
2023/04/01 11:24:45;;;;;;;6.18;1.90;;;;;;;19.13;52.67;99416.75;4955415;28;20093;-65
2023/04/01 11:27:37;;;;;;;5.55;1.85;;;;;;;19.14;52.44;99415.81;4968385;28;20035;-64
2023/04/01 11:30:20;;;;;;;6.82;1.80;;;;;;;19.14;52.57;99397.28;4912957;29;20048;-64
2023/04/01 11:32:48;;;;;;;5.95;2.00;;;;;;;19.13;52.30;99401.72;4913490;29;20582;-65
2023/04/01 11:35:22;;;;;;;6.72;1.80;;;;;;;19.14;52.61;99410.50;4913533;29;20040;-66
2023/04/01 11:38:02;;;;;;;6.15;1.65;;;;;;;19.16;52.22;99403.34;4914837;29;20036;-64
2023/04/01 11:40:40;;;;;;;8.23;2.30;;;;;;;19.18;52.39;99401.47;4911964;29;20051;-66
2023/04/01 11:43:16;;;;;;;5.10;1.95;;;;;;;19.18;52.50;99398.84;4912554;29;20040;-66
2023/04/01 11:46:03;;;;;;;6.95;2.00;;;;;;;19.18;52.30;99401.47;4925862;29;20030;-65
2023/04/01 11:48:59;;;;;;;6.80;2.05;;;;;;;19.19;52.47;99393.44;4932073;29;20035;-65
2023/04/01 11:51:59;;;;;;;4.78;2.10;;;;;;;19.20;52.34;99396.94;4922774;29;20050;-64
2023/04/01 11:54:49;;;;;;;5.43;1.90;;;;;;;19.21;52.44;99400.47;4853327;29;20060;-63
2023/04/01 11:57:39;;;;;;;5.68;1.95;;;;;;;19.20;52.16;99402.25;4848352;29;20038;-64
2023/04/01 12:00:22;;;;;;;4.85;2.00;;;;;;;19.22;52.14;99392.41;4854191;29;20034;-66
2023/04/01 12:02:50;;;;;;;7.43;2.00;;;;;;;19.22;52.27;99399.53;4852373;29;20154;-65
2023/04/01 12:05:33;;;;;;;5.50;2.10;;;;;;;19.23;52.20;99383.53;4846838;29;20629;-65
2023/04/01 12:08:04;;;;;;;4.45;1.63;;;;;;;19.22;52.46;99381.84;4902516;29;20040;-65
2023/04/01 12:10:53;;;;;;;6.15;2.03;;;;;;;19.23;52.30;99394.13;4907452;29;20127;-64
2023/04/01 12:13:31;;;;;;;5.75;2.00;;;;;;;19.24;52.27;99401.16;4905126;29;20506;-64